Time;durP1;ratioP1;P1;durP2;ratioP2;P2;SDS_P1;SDS_P2;PMS_P1;PMS_P2;Temp;Humidity;BMP_temperature;BMP_pressure;BME280_temperature;BME280_humidity;BME280_pressure;Samples;Min_cycle;Max_cycle;Signal;HPM_P1;HPM_P2
2022/05/31 00:02:19;;;;;;;1.67;0.90;;;19.30;57.40;;;;;;4480124;32;20145;-60
2022/05/31 00:04:46;;;;;;;1.52;0.95;;;19.30;57.50;;;;;;4473032;32;20125;-60
2022/05/31 00:07:11;;;;;;;1.20;0.80;;;19.30;57.50;;;;;;4471053;31;20130;-60
2022/05/31 00:09:37;;;;;;;1.77;0.90;;;19.30;57.40;;;;;;4472005;32;20141;-60
2022/05/31 00:12:04;;;;;;;1.63;0.80;;;19.30;57.50;;;;;;4471462;32;20147;-60
2022/05/31 00:14:30;;;;;;;3.72;1.23;;;19.30;57.40;;;;;;4469893;32;20129;-60
2022/05/31 00:16:56;;;;;;;1.17;0.80;;;19.30;57.50;;;;;;4472800;32;20133;-60
2022/05/31 00:19:22;;;;;;;1.50;0.70;;;19.20;57.40;;;;;;4465551;32;20203;-60
2022/05/31 00:21:56;;;;;;;1.73;0.73;;;19.20;57.40;;;;;;4464598;32;20448;-60
2022/05/31 00:24:23;;;;;;;1.80;0.90;;;19.20;57.40;;;;;;4475700;32;20137;-60
2022/05/31 00:26:49;;;;;;;1.52;0.70;;;19.20;57.40;;;;;;4470229;32;20144;-60
2022/05/31 00:29:15;;;;;;;1.23;0.73;;;19.20;57.40;;;;;;4468755;31;20153;-60
2022/05/31 00:31:45;;;;;;;2.33;0.55;;;19.20;57.40;;;;;;4470622;32;20157;-60
2022/05/31 00:34:12;;;;;;;1.17;0.80;;;19.20;57.40;;;;;;4479024;31;20148;-60
2022/05/31 00:36:40;;;;;;;1.05;0.63;;;19.20;57.40;;;;;;4470371;31;20194;-60
2022/05/31 00:39:07;;;;;;;1.60;0.68;;;19.20;57.40;;;;;;4476231;32;20136;-60
2022/05/31 00:41:34;;;;;;;2.33;1.02;;;19.20;57.40;;;;;;4464511;32;20177;-60
2022/05/31 00:44:14;;;;;;;1.25;0.70;;;19.20;57.30;;;;;;4468268;32;20156;-60
2022/05/31 00:46:55;;;;;;;1.85;0.80;;;19.20;57.30;;;;;;4474489;31;20128;-60
2022/05/31 00:49:33;;;;;;;1.55;0.70;;;19.20;57.30;;;;;;4478913;32;20223;-60
2022/05/31 00:52:13;;;;;;;2.80;1.02;;;19.10;57.30;;;;;;4473865;31;20194;-60
2022/05/31 00:54:45;;;;;;;1.50;0.90;;;19.10;57.30;;;;;;4469787;31;20140;-61
2022/05/31 00:57:12;;;;;;;1.40;0.60;;;19.20;57.30;;;;;;4470885;32;20148;-61
2022/05/31 00:59:45;;;;;;;1.45;0.73;;;19.10;57.30;;;;;;4473350;31;20191;-60
2022/05/31 01:02:15;;;;;;;1.27;0.73;;;19.10;57.30;;;;;;4479404;31;20129;-60
2022/05/31 01:04:57;;;;;;;1.70;0.73;;;19.20;57.30;;;;;;4477892;32;20140;-60
2022/05/31 01:07:23;;;;;;;1.20;0.70;;;19.10;57.30;;;;;;4478582;31;20198;-61
2022/05/31 01:09:50;;;;;;;1.88;0.70;;;19.10;57.30;;;;;;4476190;32;20144;-61
2022/05/31 01:12:17;;;;;;;1.40;0.63;;;19.10;57.30;;;;;;4475343;32;20129;-61
2022/05/31 01:14:43;;;;;;;0.90;0.50;;;19.10;57.30;;;;;;4478455;32;20259;-61
2022/05/31 01:17:14;;;;;;;1.40;0.80;;;19.10;57.30;;;;;;4479444;32;20136;-61
2022/05/31 01:19:55;;;;;;;1.73;0.85;;;19.10;57.30;;;;;;4476652;31;20125;-61
2022/05/31 01:22:37;;;;;;;1.85;0.70;;;19.10;57.30;;;;;;4476949;32;20119;-61
2022/05/31 01:25:03;;;;;;;1.23;0.57;;;19.10;57.30;;;;;;4465660;32;20133;-61
2022/05/31 01:27:49;;;;;;;0.95;0.50;;;19.10;57.30;;;;;;4466450;32;20270;-61
2022/05/31 01:30:16;;;;;;;1.27;0.80;;;19.10;57.20;;;;;;4464551;32;20136;-61
2022/05/31 01:32:48;;;;;;;2.05;0.65;;;19.10;57.30;;;;;;4467184;32;20196;-60
2022/05/31 01:35:25;;;;;;;0.85;0.50;;;19.10;57.30;;;;;;4480087;32;20121;-60
2022/05/31 01:38:19;;;;;;;1.15;0.80;;;19.00;57.20;;;;;;4474501;32;20105;-60
2022/05/31 01:41:19;;;;;;;1.05;0.68;;;19.00;57.20;;;;;;4480901;32;20210;-60
2022/05/31 01:43:49;;;;;;;1.10;0.60;;;19.00;57.20;;;;;;4452421;32;20202;-60
2022/05/31 01:46:22;;;;;;;0.77;0.60;;;19.00;57.20;;;;;;4473835;32;20117;-61
2022/05/31 01:48:49;;;;;;;1.27;0.60;;;19.00;57.20;;;;;;4481062;32;20133;-60
2022/05/31 01:51:15;;;;;;;0.85;0.60;;;19.00;57.20;;;;;;4480370;32;20189;-60
2022/05/31 01:53:41;;;;;;;1.13;0.63;;;19.00;57.20;;;;;;4484120;32;20275;-60
2022/05/31 01:56:10;;;;;;;1.25;0.50;;;19.00;57.20;;;;;;4483378;31;20129;-60
2022/05/31 01:58:40;;;;;;;0.90;0.60;;;19.00;57.30;;;;;;4483550;32;20125;-60
2022/05/31 02:01:08;;;;;;;1.15;0.80;;;19.00;58.20;;;;;;4483534;32;20133;-60
2022/05/31 02:03:35;;;;;;;1.08;0.63;;;19.00;57.30;;;;;;4482987;31;20134;-61
2022/05/31 02:06:01;;;;;;;1.00;0.70;;;19.00;57.20;;;;;;4491611;31;20144;-60
2022/05/31 02:08:31;;;;;;;1.13;0.80;;;19.00;57.30;;;;;;4485653;31;20525;-60
2022/05/31 02:10:57;;;;;;;2.95;0.50;;;19.00;57.30;;;;;;4492999;31;20168;-60
2022/05/31 02:13:25;;;;;;;1.63;0.60;;;19.00;57.30;;;;;;4475758;32;20109;-60
2022/05/31 02:15:53;;;;;;;0.93;0.57;;;19.00;57.30;;;;;;4483032;31;20152;-60
2022/05/31 02:18:19;;;;;;;1.48;0.82;;;19.00;57.30;;;;;;4483829;32;20135;-60
2022/05/31 02:20:46;;;;;;;1.52;0.68;;;19.00;57.30;;;;;;4482627;32;20141;-60
2022/05/31 02:23:12;;;;;;;1.00;0.70;;;18.90;57.20;;;;;;4484020;32;20214;-61
2022/05/31 02:25:37;;;;;;;1.20;0.60;;;18.90;57.30;;;;;;4481438;32;20129;-60
2022/05/31 02:28:04;;;;;;;1.00;0.68;;;18.90;57.30;;;;;;4483458;32;20590;-60
2022/05/31 02:30:30;;;;;;;1.23;0.65;;;18.90;57.20;;;;;;4482851;32;20125;-60
2022/05/31 02:32:56;;;;;;;1.35;0.65;;;18.90;57.30;;;;;;4482903;32;20140;-60
2022/05/31 02:35:22;;;;;;;1.13;0.70;;;18.90;57.30;;;;;;4483350;32;20121;-60
2022/05/31 02:37:47;;;;;;;1.08;0.60;;;18.90;57.30;;;;;;4482377;32;20117;-60
2022/05/31 02:40:13;;;;;;;1.38;0.75;;;18.90;57.30;;;;;;4483901;32;20431;-60
2022/05/31 02:42:39;;;;;;;1.13;0.55;;;18.90;57.30;;;;;;4482468;32;20137;-60
2022/05/31 02:45:08;;;;;;;1.40;0.70;;;18.90;57.30;;;;;;4483206;32;20661;-60
2022/05/31 02:47:34;;;;;;;1.63;0.60;;;18.90;57.30;;;;;;4482165;31;20129;-62
2022/05/31 02:50:00;;;;;;;1.73;0.50;;;18.90;57.30;;;;;;4466901;32;20151;-61
2022/05/31 02:52:26;;;;;;;0.95;0.60;;;18.90;57.30;;;;;;4468911;32;20145;-61
2022/05/31 02:54:52;;;;;;;0.63;0.50;;;18.90;57.30;;;;;;4469225;32;20157;-60
2022/05/31 02:57:18;;;;;;;0.77;0.52;;;18.90;57.30;;;;;;4469731;32;20191;-60
2022/05/31 02:59:44;;;;;;;0.98;0.45;;;18.90;57.30;;;;;;4467847;32;20152;-60
2022/05/31 03:02:10;;;;;;;0.95;0.50;;;18.80;57.20;;;;;;4481502;32;20129;-61
2022/05/31 03:04:37;;;;;;;0.93;0.60;;;18.80;57.20;;;;;;4482189;31;20121;-60
2022/05/31 03:07:03;;;;;;;0.63;0.47;;;18.80;57.30;;;;;;4471288;32;20330;-60
2022/05/31 03:09:31;;;;;;;1.23;0.50;;;18.80;57.30;;;;;;4482730;32;20202;-60
2022/05/31 03:12:03;;;;;;;3.47;0.65;;;18.80;57.30;;;;;;4482210;32;20140;-60
2022/05/31 03:14:35;;;;;;;1.20;0.50;;;18.80;57.40;;;;;;4483340;32;20136;-60
2022/05/31 03:17:12;;;;;;;0.75;0.38;;;18.80;57.40;;;;;;4481853;31;20821;-60
2022/05/31 03:20:00;;;;;;;0.80;0.32;;;18.80;57.40;;;;;;4482589;32;20160;-60
2022/05/31 03:22:38;;;;;;;0.70;0.40;;;18.80;57.40;;;;;;4482599;31;20270;-60
2022/05/31 03:25:09;;;;;;;2.30;0.63;;;18.80;57.40;;;;;;4481840;31;20155;-60
2022/05/31 03:27:36;;;;;;;0.43;0.38;;;18.80;57.50;;;;;;4483073;31;20152;-60
2022/05/31 03:30:03;;;;;;;1.20;0.50;;;18.80;58.50;;;;;;4466671;32;20191;-60
2022/05/31 03:32:30;;;;;;;0.70;0.50;;;18.80;57.60;;;;;;4479927;31;20159;-60
2022/05/31 03:34:57;;;;;;;1.02;0.60;;;18.80;57.60;;;;;;4478187;31;20145;-60
2022/05/31 03:37:25;;;;;;;0.60;0.32;;;18.80;57.60;;;;;;4479950;32;20143;-60
2022/05/31 03:39:51;;;;;;;1.85;0.60;;;18.80;57.60;;;;;;4476522;32;20157;-60
2022/05/31 03:42:17;;;;;;;1.05;0.40;;;18.80;57.60;;;;;;4478775;32;20135;-60
2022/05/31 03:44:43;;;;;;;0.85;0.45;;;18.80;57.60;;;;;;4486586;31;20121;-60
2022/05/31 03:47:09;;;;;;;0.73;0.60;;;18.80;57.60;;;;;;4481151;31;20129;-60
2022/05/31 03:49:35;;;;;;;0.80;0.40;;;18.80;57.50;;;;;;4482045;32;20119;-61
2022/05/31 03:52:01;;;;;;;1.00;0.50;;;18.80;57.50;;;;;;4481925;32;20148;-60
2022/05/31 03:54:28;;;;;;;0.73;0.45;;;18.80;57.60;;;;;;4481614;32;20490;-60
2022/05/31 03:56:54;;;;;;;1.20;0.50;;;18.80;57.60;;;;;;4481037;32;20128;-60
2022/05/31 03:59:20;;;;;;;1.05;0.55;;;18.80;57.50;;;;;;4481196;32;20455;-60
2022/05/31 04:01:45;;;;;;;0.50;0.40;;;18.70;57.50;;;;;;4494241;31;20132;-60
2022/05/31 04:04:11;;;;;;;1.00;0.50;;;18.70;57.50;;;;;;4481021;32;20127;-60
2022/05/31 04:06:38;;;;;;;0.82;0.50;;;18.70;57.50;;;;;;4485394;31;20251;-60
2022/05/31 04:09:04;;;;;;;1.15;0.52;;;18.70;57.50;;;;;;4478965;32;20172;-61
2022/05/31 04:11:31;;;;;;;0.80;0.50;;;18.70;57.50;;;;;;4480526;32;20156;-60
2022/05/31 04:13:57;;;;;;;0.98;0.50;;;18.70;57.50;;;;;;4481105;31;20163;-60
2022/05/31 04:16:23;;;;;;;0.77;0.45;;;18.70;57.50;;;;;;4481021;32;20113;-60
2022/05/31 04:18:49;;;;;;;1.27;0.50;;;18.80;57.60;;;;;;4482269;32;20137;-60
2022/05/31 04:21:17;;;;;;;0.93;0.38;;;18.70;57.50;;;;;;4480846;32;20539;-60
2022/05/31 04:24:02;;;;;;;0.57;0.40;;;18.70;57.50;;;;;;4478143;32;20259;-60
2022/05/31 04:26:36;;;;;;;0.80;0.32;;;18.70;57.50;;;;;;4470631;32;20139;-60
2022/05/31 04:29:02;;;;;;;0.50;0.35;;;18.70;57.50;;;;;;4481010;31;20139;-60
2022/05/31 04:31:27;;;;;;;0.98;0.50;;;18.70;57.50;;;;;;4480678;32;20109;-60
2022/05/31 04:33:53;;;;;;;1.00;0.52;;;18.70;57.50;;;;;;4463867;32;20117;-60
2022/05/31 04:36:21;;;;;;;0.73;0.50;;;18.70;57.50;;;;;;4479558;32;20479;-60
2022/05/31 04:38:47;;;;;;;0.50;0.38;;;18.70;57.50;;;;;;4480978;31;20167;-60
2022/05/31 04:41:22;;;;;;;0.95;0.50;;;18.70;57.60;;;;;;4481225;31;20125;-60
2022/05/31 04:43:52;;;;;;;0.90;0.40;;;18.70;57.50;;;;;;4481597;31;20239;-60
2022/05/31 04:46:22;;;;;;;0.85;0.40;;;18.70;57.50;;;;;;4480456;32;20141;-60
2022/05/31 04:48:48;;;;;;;1.08;0.38;;;18.70;57.50;;;;;;4481582;31;20147;-60
2022/05/31 04:51:14;;;;;;;1.10;0.47;;;18.70;57.60;;;;;;4479412;32;20220;-60
2022/05/31 04:53:41;;;;;;;0.70;0.30;;;18.70;57.60;;;;;;4481526;32;20629;-60
2022/05/31 04:56:10;;;;;;;0.80;0.40;;;18.60;57.50;;;;;;4480950;31;20137;-60
2022/05/31 04:58:36;;;;;;;0.60;0.30;;;18.70;57.60;;;;;;4480779;31;20133;-60
2022/05/31 05:01:06;;;;;;;0.63;0.30;;;18.60;57.60;;;;;;4481187;32;20131;-60
2022/05/31 05:03:35;;;;;;;1.45;0.50;;;18.70;57.60;;;;;;4480345;32;20250;-60
2022/05/31 05:06:03;;;;;;;0.60;0.30;;;18.60;57.50;;;;;;4477152;32;20234;-60
2022/05/31 05:08:29;;;;;;;0.73;0.30;;;18.70;57.60;;;;;;4474176;32;20133;-60
2022/05/31 05:10:56;;;;;;;0.40;0.40;;;18.60;57.60;;;;;;4481001;31;20141;-60
2022/05/31 05:13:22;;;;;;;0.70;0.35;;;18.60;57.60;;;;;;4479710;32;20758;-60
2022/05/31 05:15:48;;;;;;;0.70;0.30;;;18.60;57.60;;;;;;4485513;31;20135;-60
2022/05/31 05:18:13;;;;;;;0.60;0.30;;;18.70;57.60;;;;;;4481103;32;20121;-60
2022/05/31 05:20:40;;;;;;;1.05;0.50;;;18.60;57.60;;;;;;4479873;32;20497;-60
2022/05/31 05:23:07;;;;;;;0.88;0.30;;;18.60;57.60;;;;;;4481477;31;20719;-60
2022/05/31 05:25:34;;;;;;;0.68;0.40;;;18.60;57.60;;;;;;4478661;32;20133;-60
2022/05/31 05:28:00;;;;;;;1.58;0.50;;;18.60;57.60;;;;;;4480764;31;20133;-60
2022/05/31 05:30:40;;;;;;;0.68;0.45;;;18.60;57.60;;;;;;4480124;31;20601;-60
2022/05/31 05:33:07;;;;;;;0.50;0.38;;;18.60;57.60;;;;;;4480281;32;20135;-60
2022/05/31 05:35:33;;;;;;;0.90;0.60;;;18.60;57.40;;;;;;4480887;32;20128;-60
2022/05/31 05:38:01;;;;;;;0.82;0.60;;;18.60;57.20;;;;;;4478621;32;20172;-61
2022/05/31 05:40:27;;;;;;;1.35;0.70;;;18.60;57.20;;;;;;4479874;32;20141;-61
2022/05/31 05:42:52;;;;;;;0.65;0.60;;;18.60;57.20;;;;;;4479020;32;20132;-61
2022/05/31 05:45:18;;;;;;;1.30;0.63;;;18.60;57.10;;;;;;4480649;32;20129;-61
2022/05/31 05:47:45;;;;;;;1.48;0.75;;;18.60;57.10;;;;;;4492010;31;20137;-60
2022/05/31 05:50:11;;;;;;;2.58;1.00;;;18.60;57.20;;;;;;4480315;32;20137;-61
2022/05/31 05:52:38;;;;;;;0.93;0.68;;;18.60;57.20;;;;;;4480790;32;20125;-60
2022/05/31 05:55:04;;;;;;;1.17;0.60;;;18.60;57.20;;;;;;4479664;32;20148;-61
2022/05/31 05:57:30;;;;;;;1.35;0.80;;;18.60;57.30;;;;;;4493038;32;20129;-60
2022/05/31 05:59:56;;;;;;;2.28;0.80;;;18.60;57.30;;;;;;4470037;32;20125;-60
2022/05/31 06:02:31;;;;;;;1.55;0.75;;;18.60;57.30;;;;;;4492225;32;20113;-60
2022/05/31 06:05:07;;;;;;;1.75;0.90;;;18.60;57.40;;;;;;4480245;32;20294;-60
2022/05/31 06:07:40;;;;;;;1.50;0.88;;;18.60;57.40;;;;;;4467488;32;20128;-60
2022/05/31 06:10:16;;;;;;;1.00;0.82;;;18.60;57.50;;;;;;4481145;32;20147;-60
2022/05/31 06:12:58;;;;;;;1.23;0.80;;;18.50;57.40;;;;;;4479602;32;20128;-60
2022/05/31 06:15:30;;;;;;;1.85;1.00;;;18.60;57.50;;;;;;4480517;32;20136;-61
2022/05/31 06:18:00;;;;;;;3.58;1.10;;;18.50;57.40;;;;;;4480203;32;20141;-61
2022/05/31 06:20:29;;;;;;;1.38;1.08;;;18.60;57.50;;;;;;4480236;32;20133;-60
2022/05/31 06:22:55;;;;;;;3.85;1.38;;;18.60;57.60;;;;;;4479819;32;20125;-60
2022/05/31 06:25:21;;;;;;;1.88;0.90;;;18.60;57.70;;;;;;4478671;32;20132;-60
2022/05/31 06:27:48;;;;;;;4.50;1.10;;;18.50;57.60;;;;;;4480419;32;20191;-60
2022/05/31 06:30:14;;;;;;;2.40;1.23;;;18.60;57.70;;;;;;4479844;32;20109;-61
2022/05/31 06:32:40;;;;;;;6.38;1.33;;;18.50;57.70;;;;;;4480015;32;20156;-60
2022/05/31 06:35:06;;;;;;;2.22;1.00;;;18.60;57.80;;;;;;4479157;32;20109;-60
2022/05/31 06:37:32;;;;;;;6.00;1.40;;;18.50;57.70;;;;;;4480764;32;20149;-61
2022/05/31 06:39:58;;;;;;;3.80;1.20;;;18.60;57.80;;;;;;4483416;32;20165;-61
2022/05/31 06:42:25;;;;;;;6.63;1.40;;;18.60;57.90;;;;;;4482145;32;20203;-60
2022/05/31 06:44:50;;;;;;;2.75;1.40;;;18.60;57.80;;;;;;4483451;31;20470;-61
2022/05/31 06:47:16;;;;;;;1.80;1.25;;;18.60;57.80;;;;;;4482240;32;20640;-64
2022/05/31 06:49:42;;;;;;;5.70;1.40;;;18.60;57.90;;;;;;4482799;32;20113;-60
2022/05/31 06:57:42;;;;;;;2.63;1.40;;;18.60;58.10;;;;;;4483359;31;20205;-61
2022/05/31 07:00:11;;;;;;;4.40;1.77;;;18.60;58.00;;;;;;4481974;32;20155;-61
2022/05/31 07:02:37;;;;;;;2.08;1.48;;;18.60;57.90;;;;;;4473771;31;20235;-61
2022/05/31 07:05:03;;;;;;;6.20;1.83;;;18.60;58.80;;;;;;4479124;32;20119;-61
2022/05/31 07:07:29;;;;;;;8.18;3.05;;;18.60;57.70;;;;;;4482979;31;20267;-61
2022/05/31 07:09:55;;;;;;;6.25;2.00;;;18.60;57.70;;;;;;4483031;32;20139;-61
2022/05/31 07:12:22;;;;;;;7.78;3.05;;;18.50;57.60;;;;;;4481686;31;20582;-61
2022/05/31 07:14:48;;;;;;;12.73;3.63;;;18.50;57.50;;;;;;4482974;32;20125;-60
2022/05/31 07:17:14;;;;;;;12.77;4.75;;;18.50;57.60;;;;;;4482012;31;20222;-61
2022/05/31 07:19:42;;;;;;;12.05;5.50;;;18.50;57.70;;;;;;4482514;32;20129;-60
2022/05/31 07:22:07;;;;;;;13.60;5.80;;;18.50;57.70;;;;;;4482367;31;20133;-61
2022/05/31 07:24:33;;;;;;;11.02;5.57;;;18.50;57.80;;;;;;4482121;32;20135;-60
2022/05/31 07:26:59;;;;;;;11.15;5.80;;;18.60;57.80;;;;;;4482333;32;20613;-60
2022/05/31 07:29:25;;;;;;;16.05;6.65;;;18.50;57.80;;;;;;4481520;32;20184;-61
2022/05/31 07:31:54;;;;;;;11.07;5.10;;;18.50;58.00;;;;;;4482637;32;20197;-61
2022/05/31 07:34:23;;;;;;;9.60;4.30;;;18.50;58.00;;;;;;4481478;31;20207;-61
2022/05/31 07:36:49;;;;;;;8.25;4.07;;;18.50;57.80;;;;;;4460518;31;21881;-60
2022/05/31 07:39:17;;;;;;;9.88;4.22;;;18.50;57.60;;;;;;4481115;31;20294;-60
2022/05/31 07:41:43;;;;;;;7.53;3.90;;;18.50;57.70;;;;;;4481189;31;20203;-60
2022/05/31 07:44:09;;;;;;;8.27;3.85;;;18.60;57.70;;;;;;4482020;31;20172;-60
2022/05/31 07:46:35;;;;;;;6.90;3.20;;;18.60;57.60;;;;;;4471870;32;20124;-61
2022/05/31 07:49:01;;;;;;;5.90;3.17;;;18.60;57.40;;;;;;4494220;31;20537;-60
2022/05/31 07:51:28;;;;;;;7.80;2.50;;;18.60;57.40;;;;;;4481119;31;20163;-61
2022/05/31 07:53:54;;;;;;;4.63;2.53;;;18.60;57.40;;;;;;4481719;32;20132;-60
2022/05/31 07:56:22;;;;;;;6.10;2.30;;;18.60;57.40;;;;;;4481038;32;20117;-61
2022/05/31 07:58:48;;;;;;;4.68;2.38;;;18.60;57.30;;;;;;4480963;31;20574;-61
2022/05/31 08:01:17;;;;;;;7.40;2.20;;;18.60;57.30;;;;;;4481585;31;20137;-60
2022/05/31 08:03:44;;;;;;;9.60;2.30;;;18.60;57.10;;;;;;4480699;32;20143;-61
2022/05/31 08:06:14;;;;;;;7.60;2.30;;;18.60;57.20;;;;;;4476151;31;20761;-61
2022/05/31 08:08:41;;;;;;;11.05;2.03;;;18.70;57.10;;;;;;4475853;31;20121;-60
2022/05/31 08:11:12;;;;;;;7.47;2.00;;;18.80;56.90;;;;;;4481386;31;20294;-61
2022/05/31 08:13:40;;;;;;;9.10;1.50;;;18.80;56.80;;;;;;4481372;31;20137;-61
2022/05/31 08:16:08;;;;;;;3.75;1.52;;;18.80;56.80;;;;;;4480650;31;20214;-61
2022/05/31 08:18:36;;;;;;;8.63;1.50;;;18.90;57.00;;;;;;4480916;32;20190;-60
2022/05/31 08:21:05;;;;;;;6.00;1.80;;;18.90;57.00;;;;;;4480336;31;20143;-61
2022/05/31 08:23:32;;;;;;;10.38;1.60;;;19.00;57.10;;;;;;4480404;32;20657;-61
2022/05/31 08:25:59;;;;;;;8.90;1.60;;;19.00;57.00;;;;;;4492517;31;20125;-60
2022/05/31 08:28:25;;;;;;;4.53;1.48;;;19.00;57.10;;;;;;4481042;31;20143;-62
2022/05/31 08:30:58;;;;;;;3.60;1.30;;;19.10;57.20;;;;;;4481106;32;20495;-61
2022/05/31 08:33:25;;;;;;;4.05;1.60;;;19.10;57.10;;;;;;4480536;31;20125;-63
2022/05/31 08:35:51;;;;;;;3.28;1.20;;;19.10;57.00;;;;;;4460011;31;20127;-62
2022/05/31 08:38:18;;;;;;;5.93;1.35;;;19.10;57.00;;;;;;4480230;31;20324;-61
2022/05/31 08:41:12;;;;;;;2.85;1.20;;;19.20;57.00;;;;;;4481419;32;20203;-61
2022/05/31 08:43:47;;;;;;;3.45;1.27;;;19.20;56.90;;;;;;4468796;32;20286;-61
2022/05/31 08:46:26;;;;;;;3.75;0.95;;;19.20;56.70;;;;;;4478571;31;20137;-61
2022/05/31 08:49:15;;;;;;;3.83;1.00;;;19.20;56.70;;;;;;4475653;32;20176;-61
2022/05/31 08:52:09;;;;;;;4.97;1.02;;;19.20;56.50;;;;;;4476530;31;20251;-60
2022/05/31 08:57:49;;;;;;;3.40;0.90;;;19.20;56.40;;;;;;4474022;32;20129;-61
2022/05/31 09:00:22;;;;;;;3.65;1.10;;;19.20;56.30;;;;;;4480161;31;20266;-61
2022/05/31 09:02:54;;;;;;;4.65;1.88;;;19.20;56.30;;;;;;4480574;31;20148;-61
2022/05/31 09:05:28;;;;;;;4.85;2.20;;;19.20;56.10;;;;;;4480936;32;20144;-61
2022/05/31 09:08:24;;;;;;;4.65;2.00;;;19.20;56.10;;;;;;4479676;31;20133;-61
2022/05/31 09:11:06;;;;;;;4.07;2.17;;;19.20;56.10;;;;;;4478445;32;20124;-61
2022/05/31 09:13:54;;;;;;;5.80;2.13;;;19.20;55.90;;;;;;4480435;31;20152;-63
2022/05/31 09:16:40;;;;;;;6.93;2.80;;;19.20;55.90;;;;;;4469776;32;20274;-62
2022/05/31 09:19:09;;;;;;;4.78;2.60;;;19.30;55.60;;;;;;4467576;32;20148;-61
2022/05/31 09:21:42;;;;;;;5.88;2.90;;;19.30;55.70;;;;;;4466692;32;20225;-62
2022/05/31 09:24:17;;;;;;;8.15;3.05;;;19.30;55.60;;;;;;4476485;32;20139;-61
2022/05/31 09:27:08;;;;;;;8.90;3.67;;;19.30;55.60;;;;;;4480738;32;20133;-62
2022/05/31 09:29:53;;;;;;;8.52;3.42;;;19.30;55.40;;;;;;4479867;32;20147;-62
2022/05/31 09:32:46;;;;;;;8.98;3.05;;;19.30;55.30;;;;;;4474315;32;20140;-62
2022/05/31 09:35:18;;;;;;;8.55;2.63;;;19.30;54.90;;;;;;4480742;32;20172;-61
2022/05/31 09:38:02;;;;;;;5.00;2.30;;;19.30;54.20;;;;;;4463225;32;23210;-61
2022/05/31 09:40:50;;;;;;;4.13;2.08;;;19.40;54.20;;;;;;4461581;32;21643;-61
2022/05/31 09:43:40;;;;;;;4.57;2.15;;;19.40;54.00;;;;;;4479973;32;20137;-63
2022/05/31 09:46:39;;;;;;;4.07;1.92;;;19.40;54.00;;;;;;4472798;32;20255;-62
2022/05/31 09:49:19;;;;;;;4.60;2.05;;;19.40;54.20;;;;;;4471474;32;20136;-61
2022/05/31 09:51:45;;;;;;;4.10;1.73;;;19.40;54.30;;;;;;4474884;32;20159;-62
2022/05/31 09:57:06;;;;;;;5.30;1.77;;;19.40;54.20;;;;;;4476090;32;20168;-61
2022/05/31 09:59:34;;;;;;;4.88;1.67;;;19.40;54.30;;;;;;4475160;31;20145;-61
2022/05/31 10:02:26;;;;;;;5.50;1.70;;;19.40;54.30;;;;;;4480000;32;20149;-62
2022/05/31 10:05:18;;;;;;;8.82;1.75;;;19.40;54.30;;;;;;4478600;32;20121;-60
2022/05/31 10:07:46;;;;;;;2.30;1.17;;;19.40;54.50;;;;;;4479034;32;20152;-62
2022/05/31 10:10:22;;;;;;;3.53;1.50;;;19.40;54.50;;;;;;4480265;32;20133;-62
2022/05/31 10:13:01;;;;;;;5.07;1.27;;;19.30;54.50;;;;;;4479065;32;20206;-62
2022/05/31 10:15:44;;;;;;;3.50;1.73;;;19.30;54.60;;;;;;4482491;31;20152;-63
2022/05/31 10:18:30;;;;;;;2.50;1.27;;;19.30;54.70;;;;;;4480811;31;20196;-63
2022/05/31 10:21:02;;;;;;;5.63;1.35;;;19.30;54.60;;;;;;4480162;31;20237;-62
2022/05/31 10:23:45;;;;;;;3.30;1.35;;;19.30;54.70;;;;;;4482651;31;20192;-62
2022/05/31 10:26:32;;;;;;;4.73;1.40;;;19.30;54.70;;;;;;4480520;31;20167;-62
2022/05/31 10:29:00;;;;;;;2.90;1.30;;;19.30;54.70;;;;;;4482205;31;20109;-62
2022/05/31 10:31:37;;;;;;;3.22;1.17;;;19.30;54.70;;;;;;4483068;31;20255;-62
2022/05/31 10:34:40;;;;;;;2.53;1.30;;;19.30;54.70;;;;;;4481820;31;20168;-63
2022/05/31 10:37:22;;;;;;;2.15;1.17;;;19.30;54.70;;;;;;4481952;31;20168;-63
2022/05/31 10:40:04;;;;;;;3.45;1.10;;;19.30;54.80;;;;;;4469094;32;20129;-63
2022/05/31 10:42:32;;;;;;;2.20;1.17;;;19.30;54.70;;;;;;4481522;31;20137;-63
2022/05/31 10:45:02;;;;;;;2.03;0.98;;;19.30;54.70;;;;;;4482863;31;20114;-63
2022/05/31 10:47:29;;;;;;;2.03;0.80;;;19.40;54.70;;;;;;4481211;31;20133;-63
2022/05/31 10:49:55;;;;;;;1.95;1.00;;;19.40;54.80;;;;;;4481257;32;20129;-63
2022/05/31 10:52:58;;;;;;;2.65;1.25;;;19.40;54.80;;;;;;4482835;31;20125;-62
2022/05/31 10:55:42;;;;;;;2.60;0.80;;;19.40;54.70;;;;;;4481752;31;20133;-63
2022/05/31 10:58:16;;;;;;;4.05;1.10;;;19.40;54.70;;;;;;4482658;31;20183;-63
2022/05/31 11:00:58;;;;;;;2.97;1.20;;;19.40;54.70;;;;;;4482174;31;20144;-63
2022/05/31 11:04:00;;;;;;;3.53;1.35;;;19.40;54.70;;;;;;4481321;32;20128;-63
2022/05/31 11:06:57;;;;;;;2.65;0.90;;;19.40;54.80;;;;;;4470308;31;20113;-63
2022/05/31 11:13:03;;;;;;;3.28;0.90;;;19.30;55.00;;;;;;4481247;31;20165;-63
2022/05/31 11:15:50;;;;;;;2.85;0.80;;;19.30;55.00;;;;;;4480853;31;20136;-63
2022/05/31 11:18:34;;;;;;;6.07;1.17;;;19.30;55.00;;;;;;4481211;31;20147;-62
2022/05/31 11:21:09;;;;;;;1.55;0.90;;;19.30;55.00;;;;;;4479409;32;20433;-62
2022/05/31 11:24:10;;;;;;;3.55;0.90;;;19.30;55.00;;;;;;4482071;32;20159;-63
2022/05/31 11:27:03;;;;;;;8.43;1.00;;;19.20;54.90;;;;;;4450043;31;20145;-61
2022/05/31 11:29:29;;;;;;;6.07;0.90;;;19.20;55.00;;;;;;4478392;31;20157;-61
2022/05/31 11:32:28;;;;;;;5.13;1.08;;;19.20;55.00;;;;;;4481451;31;20121;-61
2022/05/31 11:34:59;;;;;;;5.60;0.85;;;19.20;54.90;;;;;;4481059;31;20208;-61
2022/05/31 11:38:04;;;;;;;5.13;0.85;;;19.20;55.00;;;;;;4480783;31;20133;-61
2022/05/31 11:41:03;;;;;;;8.57;1.08;;;19.20;55.10;;;;;;4480700;31;20214;-61
2022/05/31 11:43:29;;;;;;;5.28;0.90;;;19.20;55.20;;;;;;4455467;31;20198;-61
2022/05/31 11:46:13;;;;;;;2.42;0.90;;;19.20;55.20;;;;;;4480967;31;20133;-61
2022/05/31 11:49:01;;;;;;;4.80;0.70;;;19.10;55.20;;;;;;4479752;31;20198;-61
2022/05/31 11:52:01;;;;;;;5.30;0.90;;;19.20;55.40;;;;;;4480995;31;20593;-61
2022/05/31 11:54:41;;;;;;;4.47;1.10;;;19.20;55.40;;;;;;4479338;31;20128;-62
2022/05/31 11:57:39;;;;;;;4.60;0.93;;;19.20;55.50;;;;;;4474653;32;20117;-61
2022/05/31 12:00:08;;;;;;;5.43;0.77;;;19.30;55.50;;;;;;4480722;31;20135;-61
2022/05/31 12:02:54;;;;;;;16.88;1.10;;;19.20;55.50;;;;;;4480702;32;20132;-61
2022/05/31 12:05:28;;;;;;;4.55;0.90;;;19.20;55.50;;;;;;4481950;31;20124;-61
2022/05/31 12:08:09;;;;;;;2.90;0.85;;;19.20;55.50;;;;;;4470752;32;20141;-61
2022/05/31 12:10:41;;;;;;;1.73;0.75;;;19.20;55.50;;;;;;4481664;31;20238;-61
2022/05/31 12:13:10;;;;;;;1.60;0.90;;;19.20;55.40;;;;;;4480651;31;20143;-61
2022/05/31 12:15:43;;;;;;;3.38;0.80;;;19.20;55.40;;;;;;4481005;31;20198;-61
2022/05/31 12:18:11;;;;;;;6.30;1.15;;;19.20;55.30;;;;;;4481244;31;20133;-61
2022/05/31 12:20:56;;;;;;;4.65;0.85;;;19.20;55.20;;;;;;4480073;31;20254;-61
2022/05/31 12:23:58;;;;;;;4.35;0.95;;;19.30;55.10;;;;;;4479555;31;20132;-61
2022/05/31 12:26:30;;;;;;;3.70;0.65;;;19.30;55.10;;;;;;4479687;31;20151;-61
2022/05/31 12:29:05;;;;;;;2.53;0.95;;;19.30;55.10;;;;;;4480424;31;20171;-60
2022/05/31 12:31:34;;;;;;;2.30;0.75;;;19.30;55.10;;;;;;4481186;31;20144;-61
2022/05/31 12:34:34;;;;;;;2.40;0.90;;;19.30;55.00;;;;;;4480636;31;20125;-61
2022/05/31 12:37:14;;;;;;;1.92;0.77;;;19.30;54.90;;;;;;4479632;31;20128;-61
2022/05/31 12:39:48;;;;;;;3.63;0.90;;;19.40;54.90;;;;;;4481162;31;20179;-60
2022/05/31 12:42:14;;;;;;;1.88;0.70;;;19.40;54.90;;;;;;4480036;31;20141;-61
2022/05/31 12:44:48;;;;;;;2.03;0.85;;;19.40;54.90;;;;;;4481061;32;20239;-61
2022/05/31 12:47:22;;;;;;;1.77;0.82;;;19.40;54.90;;;;;;4480519;31;20125;-60
2022/05/31 12:49:54;;;;;;;1.98;0.82;;;19.40;54.90;;;;;;4480794;31;20143;-62
2022/05/31 12:53:22;;;;;;;1.52;0.60;;;19.40;54.80;;;;;;4480077;32;20156;-62
2022/05/31 12:55:25;;;;;;;2.28;0.80;;;19.40;54.80;;;;;;4460877;31;23986;-61
2022/05/31 12:58:29;;;;;;;3.20;0.98;;;19.50;55.10;;;;;;4480555;31;20139;-61
2022/05/31 13:01:16;;;;;;;4.10;0.70;;;19.50;55.00;;;;;;4479146;31;20136;-61
2022/05/31 13:03:42;;;;;;;3.03;0.70;;;19.40;54.80;;;;;;4479451;31;20238;-61
2022/05/31 13:06:35;;;;;;;3.88;0.70;;;19.50;55.00;;;;;;4474657;32;20183;-61
2022/05/31 13:09:11;;;;;;;3.70;0.88;;;19.50;55.00;;;;;;4479984;31;20136;-61
2022/05/31 13:20:26;;;;;;;2.00;0.50;;;19.40;55.20;;;;;;4480281;32;20128;-61
2022/05/31 13:22:59;;;;;;;1.17;0.45;;;19.40;55.30;;;;;;4481266;32;20168;-61
2022/05/31 13:25:33;;;;;;;1.77;0.73;;;19.40;55.40;;;;;;4479962;31;20199;-61
2022/05/31 13:28:01;;;;;;;2.42;0.60;;;19.40;55.40;;;;;;4480451;32;20140;-61
2022/05/31 13:30:30;;;;;;;0.98;0.50;;;19.40;55.50;;;;;;4480588;31;20149;-61
2022/05/31 13:32:58;;;;;;;2.30;0.65;;;19.40;55.50;;;;;;4478932;32;20156;-61
2022/05/31 13:35:27;;;;;;;1.48;0.50;;;19.40;55.60;;;;;;4480792;32;20176;-61
2022/05/31 13:38:03;;;;;;;3.47;0.70;;;19.40;55.60;;;;;;4479485;32;20194;-61